createdAt,value
2019-02-28T00:01:17.741Z,37.65
2019-02-28T00:03:46.297Z,38.73
2019-02-28T00:06:14.821Z,40.60
2019-02-28T00:08:43.349Z,41.07
2019-02-28T00:11:11.909Z,39.47
2019-02-28T00:13:40.417Z,43.20
2019-02-28T00:16:08.922Z,43.40
2019-02-28T00:18:37.825Z,47.83
2019-02-28T00:21:07.150Z,46.60
2019-02-28T00:23:35.645Z,44.67
2019-02-28T00:26:04.865Z,50.85
2019-02-28T00:28:34.245Z,52.50
2019-02-28T00:31:02.770Z,50.38
2019-02-28T00:33:31.657Z,58.30
2019-02-28T00:35:59.796Z,55.87
2019-02-28T00:38:29.624Z,54.00
2019-02-28T00:40:57.129Z,56.60
2019-02-28T00:43:25.814Z,62.37
2019-02-28T00:45:55.390Z,47.97
2019-02-28T00:48:23.885Z,51.30
2019-02-28T00:50:52.651Z,51.60
2019-02-28T00:53:21.365Z,56.10
2019-02-28T00:55:49.869Z,58.97
2019-02-28T00:58:18.377Z,51.47
2019-02-28T01:00:46.865Z,59.70
2019-02-28T01:03:15.321Z,59.45
2019-02-28T01:05:43.797Z,50.83
2019-02-28T01:08:12.623Z,49.17
2019-02-28T01:10:41.349Z,45.63
2019-02-28T01:13:09.840Z,51.20
2019-02-28T01:15:44.496Z,45.90
2019-02-28T01:18:07.177Z,45.87
2019-02-28T01:20:35.661Z,46.97
2019-02-28T01:23:04.978Z,45.63
2019-02-28T01:25:33.694Z,45.17
2019-02-28T01:28:02.192Z,46.70
2019-02-28T01:30:31.436Z,45.80
2019-02-28T01:32:59.932Z,50.48
2019-02-28T01:35:28.405Z,48.47
2019-02-28T01:37:56.912Z,38.93
2019-02-28T01:40:25.376Z,51.17
2019-02-28T01:42:55.014Z,39.13
2019-02-28T01:45:22.432Z,41.33
2019-02-28T01:47:51.721Z,37.03
2019-02-28T01:50:19.504Z,41.80
2019-02-28T01:52:48.005Z,37.27
2019-02-28T01:55:16.484Z,40.40
2019-02-28T01:57:45.684Z,42.43
2019-02-28T02:00:15.104Z,41.43
2019-02-28T02:02:44.181Z,38.00
2019-02-28T02:05:13.064Z,37.87
2019-02-28T02:07:41.592Z,39.27
2019-02-28T02:10:17.608Z,40.07
2019-02-28T02:12:44.988Z,36.63
2019-02-28T02:15:16.857Z,43.00
2019-02-28T02:17:42.072Z,40.67
2019-02-28T02:20:10.600Z,39.10
2019-02-28T02:22:40.618Z,39.30
2019-02-28T02:25:07.944Z,37.40
2019-02-28T02:27:36.412Z,37.03
2019-02-28T02:30:13.627Z,38.50
2019-02-28T02:32:38.735Z,43.40
2019-02-28T02:35:08.136Z,34.23
2019-02-28T02:37:31.508Z,39.00
2019-02-28T02:39:59.909Z,35.33
2019-02-28T02:42:28.373Z,35.03
2019-02-28T02:44:57.421Z,33.53
2019-02-28T02:47:31.371Z,34.55
2019-02-28T02:49:57.577Z,36.33
2019-02-28T02:52:29.957Z,37.37
2019-02-28T02:54:53.116Z,38.13
2019-02-28T02:57:20.961Z,34.92
2019-02-28T02:59:49.443Z,33.53
2019-02-28T03:02:17.920Z,35.67
2019-02-28T03:04:46.643Z,39.38
2019-02-28T03:07:22.942Z,35.37
2019-02-28T03:09:44.761Z,31.33
2019-02-28T03:12:12.392Z,34.57
2019-02-28T03:14:41.193Z,35.87
2019-02-28T03:17:11.464Z,32.35
2019-02-28T03:19:38.421Z,32.73
2019-02-28T03:22:07.364Z,35.33
2019-02-28T03:24:35.850Z,31.70
2019-02-28T03:27:04.739Z,32.00
2019-02-28T03:29:33.239Z,23.80
2019-02-28T03:32:01.746Z,26.53
2019-02-28T03:34:30.905Z,28.20
2019-02-28T03:36:59.448Z,25.97
2019-02-28T03:39:28.540Z,29.23
2019-02-28T03:41:57.587Z,28.57
2019-02-28T03:44:26.084Z,27.23
2019-02-28T03:46:54.535Z,27.60
2019-02-28T03:49:23.036Z,29.00
2019-02-28T03:51:51.512Z,26.27
2019-02-28T03:54:20.224Z,29.37
2019-02-28T03:56:52.773Z,28.57
2019-02-28T03:59:18.973Z,26.20
2019-02-28T04:01:46.704Z,28.00
2019-02-28T04:04:15.411Z,25.57
2019-02-28T04:06:43.940Z,26.90
2019-02-28T04:09:12.744Z,23.83
2019-02-28T04:11:41.230Z,29.17
2019-02-28T04:14:09.703Z,27.87
2019-02-28T04:16:38.236Z,27.48
2019-02-28T04:19:06.745Z,26.50
2019-02-28T04:21:35.483Z,29.27
2019-02-28T04:24:12.650Z,28.57
2019-02-28T04:26:33.607Z,25.33
2019-02-28T04:29:02.087Z,30.20
2019-02-28T04:31:30.586Z,28.00
2019-02-28T04:33:59.083Z,26.63
2019-02-28T04:36:27.603Z,28.10
2019-02-28T04:38:56.477Z,26.60
2019-02-28T04:41:24.938Z,26.93
2019-02-28T04:43:53.395Z,29.10
2019-02-28T04:46:22.443Z,34.00
2019-02-28T04:48:50.903Z,27.98
2019-02-28T04:51:19.355Z,29.03
2019-02-28T04:53:52.520Z,25.17
2019-02-28T04:56:17.475Z,26.87
2019-02-28T04:58:45.997Z,31.33
2019-02-28T05:01:14.479Z,30.35
2019-02-28T05:03:42.968Z,34.50
2019-02-28T05:06:11.774Z,36.67
2019-02-28T05:08:40.251Z,38.58
2019-02-28T05:11:08.695Z,39.80
2019-02-28T05:13:37.395Z,36.60
2019-02-28T05:16:05.862Z,37.03
2019-02-28T05:18:34.755Z,42.07
2019-02-28T05:21:03.224Z,47.00
2019-02-28T05:23:35.785Z,44.87
2019-02-28T05:26:00.498Z,38.58
2019-02-28T05:28:29.062Z,32.13
2019-02-28T05:30:57.571Z,36.77
2019-02-28T05:33:26.043Z,39.63
2019-02-28T05:35:57.260Z,37.80
2019-02-28T05:38:23.086Z,36.17
2019-02-28T05:40:51.584Z,37.17
2019-02-28T05:43:20.050Z,35.10
2019-02-28T05:45:49.574Z,36.23
2019-02-28T05:48:17.162Z,37.23
2019-02-28T05:50:46.920Z,34.07
2019-02-28T05:53:14.842Z,37.03
2019-02-28T05:55:43.670Z,35.43
2019-02-28T05:58:17.248Z,30.37
2019-02-28T06:00:40.923Z,36.33
2019-02-28T06:03:09.530Z,32.07
2019-02-28T06:05:38.980Z,41.18
2019-02-28T06:08:06.715Z,37.83
2019-02-28T06:10:35.237Z,34.60
2019-02-28T06:13:04.958Z,38.50
2019-02-28T06:15:34.195Z,41.97
2019-02-28T06:18:02.090Z,42.23
2019-02-28T06:20:30.670Z,44.43
2019-02-28T06:22:59.722Z,48.70
2019-02-28T06:25:28.558Z,50.93
2019-02-28T06:27:57.125Z,51.13
2019-02-28T06:30:27.664Z,47.33
2019-02-28T06:32:57.807Z,42.83
2019-02-28T06:35:23.403Z,48.27
2019-02-28T06:37:59.106Z,51.83
2019-02-28T06:40:32.815Z,47.63
2019-02-28T06:42:56.478Z,49.43
2019-02-28T06:45:36.748Z,55.75
2019-02-28T06:48:02.907Z,46.45
2019-02-28T06:50:31.537Z,54.33
2019-02-28T06:53:00.034Z,55.67
2019-02-28T06:55:28.999Z,55.37
2019-02-28T06:57:58.985Z,57.03
2019-02-28T07:00:26.103Z,55.17
2019-02-28T07:02:55.268Z,59.40
2019-02-28T07:05:25.761Z,57.13
2019-02-28T07:07:52.943Z,53.37
2019-02-28T07:10:22.253Z,53.83
2019-02-28T07:13:05.465Z,53.67
2019-02-28T07:15:32.879Z,53.65
2019-02-28T07:18:02.941Z,53.93
2019-02-28T07:20:35.113Z,55.08
2019-02-28T07:23:00.117Z,52.93
2019-02-28T07:25:28.878Z,55.67
2019-02-28T07:27:57.421Z,58.77
2019-02-28T07:30:26.009Z,61.63
2019-02-28T07:32:54.529Z,81.00
2019-02-28T07:35:23.074Z,92.80
2019-02-28T07:37:54.395Z,96.17
2019-02-28T07:40:20.777Z,84.47
2019-02-28T07:42:49.261Z,80.27
2019-02-28T07:45:17.859Z,76.33
2019-02-28T07:47:51.622Z,80.00
2019-02-28T07:50:15.066Z,88.23
2019-02-28T07:52:43.582Z,86.45
2019-02-28T07:55:12.575Z,80.40
2019-02-28T07:57:41.625Z,96.70
2019-02-28T08:00:17.557Z,83.53
2019-02-28T08:02:42.157Z,92.20
2019-02-28T08:05:10.781Z,98.90
2019-02-28T08:07:39.318Z,107.17
2019-02-28T08:10:12.707Z,89.40
2019-02-28T08:12:39.055Z,95.33
2019-02-28T08:15:10.202Z,96.47
2019-02-28T08:17:40.578Z,95.17
2019-02-28T08:20:07.381Z,91.17
2019-02-28T08:22:35.967Z,100.87
2019-02-28T08:25:07.832Z,95.70
2019-02-28T08:27:33.874Z,90.23
2019-02-28T08:30:02.370Z,100.50
2019-02-28T08:32:31.006Z,95.92
2019-02-28T08:35:00.029Z,101.53
2019-02-28T08:37:28.885Z,94.40
2019-02-28T08:39:57.433Z,88.97
2019-02-28T08:42:25.993Z,95.33
2019-02-28T08:44:57.795Z,88.52
2019-02-28T08:47:23.387Z,87.55
2019-02-28T08:49:51.953Z,102.05
2019-02-28T08:52:20.781Z,83.50
2019-02-28T08:54:49.261Z,88.87
2019-02-28T08:57:18.045Z,91.80
2019-02-28T08:59:46.589Z,78.15
2019-02-28T09:02:18.329Z,78.07
2019-02-28T09:04:44.909Z,87.80
2019-02-28T09:07:14.889Z,80.07
2019-02-28T09:09:41.421Z,80.15
2019-02-28T09:12:09.969Z,77.05
2019-02-28T09:14:38.448Z,70.50
2019-02-28T09:17:07.233Z,71.70
2019-02-28T09:19:36.746Z,78.07
2019-02-28T09:22:05.573Z,72.76
2019-02-28T09:24:34.108Z,65.17
2019-02-28T09:27:04.131Z,59.08
2019-02-28T09:29:31.572Z,60.03
2019-02-28T09:32:00.076Z,60.63
2019-02-28T09:34:30.673Z,53.48
2019-02-28T09:36:57.156Z,53.42
2019-02-28T09:39:25.668Z,57.70
2019-02-28T09:41:54.196Z,60.90
2019-02-28T09:44:22.677Z,56.95
2019-02-28T09:46:51.679Z,53.10
2019-02-28T09:49:20.172Z,53.85
2019-02-28T09:51:48.737Z,55.28
2019-02-28T09:54:18.369Z,51.75
2019-02-28T09:56:46.992Z,48.20
2019-02-28T09:59:16.184Z,47.08
2019-02-28T10:01:44.800Z,44.60
2019-02-28T10:04:13.288Z,47.98
2019-02-28T10:06:42.097Z,41.95
2019-02-28T10:09:10.918Z,48.80
2019-02-28T10:11:40.536Z,44.40
2019-02-28T10:14:08.141Z,49.83
2019-02-28T10:16:36.825Z,50.38
2019-02-28T10:19:05.345Z,39.92
2019-02-28T10:21:36.449Z,33.95
2019-02-28T10:24:02.864Z,39.27
2019-02-28T10:26:31.369Z,43.75
2019-02-28T10:29:01.213Z,38.73
2019-02-28T10:31:35.373Z,34.73
2019-02-28T10:33:57.370Z,33.92
2019-02-28T10:36:26.768Z,31.82
2019-02-28T10:38:55.544Z,33.38
2019-02-28T10:41:24.208Z,39.55
2019-02-28T10:43:55.810Z,41.48
2019-02-28T10:46:21.892Z,33.90
2019-02-28T10:48:51.158Z,33.38
2019-02-28T10:51:19.264Z,32.60
2019-02-28T10:53:47.760Z,29.32
2019-02-28T10:56:16.975Z,28.27
2019-02-28T10:58:47.231Z,34.23
2019-02-28T11:01:14.664Z,24.18
2019-02-28T11:03:43.160Z,29.40
2019-02-28T11:06:12.428Z,29.52
2019-02-28T11:08:41.036Z,29.42
2019-02-28T11:11:10.426Z,27.57
2019-02-28T11:13:38.356Z,29.87
2019-02-28T11:16:06.987Z,27.15
2019-02-28T11:18:36.495Z,24.37
2019-02-28T11:21:04.636Z,17.87
2019-02-28T11:23:33.239Z,18.30
2019-02-28T11:26:02.443Z,24.90
2019-02-28T11:28:31.079Z,19.15
2019-02-28T11:30:59.755Z,16.20
2019-02-28T11:33:28.443Z,19.65
2019-02-28T11:35:59.132Z,14.83
2019-02-28T11:38:25.631Z,17.90
2019-02-28T11:40:57.328Z,27.90
2019-02-28T11:43:23.259Z,18.17
2019-02-28T11:45:51.751Z,17.48
2019-02-28T11:48:20.569Z,18.60
2019-02-28T11:50:49.331Z,17.00
2019-02-28T11:53:19.162Z,19.50
2019-02-28T11:55:47.247Z,12.37
2019-02-28T11:58:17.691Z,18.57
2019-02-28T12:00:44.348Z,18.37
2019-02-28T12:03:12.967Z,15.08
2019-02-28T12:05:41.811Z,15.03
2019-02-28T12:08:10.753Z,12.78
2019-02-28T12:10:39.323Z,13.80
2019-02-28T12:13:08.232Z,13.45
2019-02-28T12:16:16.318Z,15.35
2019-02-28T12:18:43.041Z,14.53
2019-02-28T12:21:12.180Z,12.93
2019-02-28T12:23:40.709Z,11.63
2019-02-28T12:26:09.319Z,9.65
2019-02-28T12:28:38.304Z,8.80
2019-02-28T12:31:06.800Z,12.13
2019-02-28T12:33:35.667Z,9.50
2019-02-28T12:36:04.887Z,9.85
2019-02-28T12:38:33.371Z,9.50
2019-02-28T12:41:01.971Z,8.00
2019-02-28T12:43:31.059Z,12.58
2019-02-28T12:45:59.962Z,11.28
2019-02-28T12:48:28.567Z,11.73
2019-02-28T12:50:57.142Z,8.65
2019-02-28T12:53:25.651Z,7.75
2019-02-28T12:55:54.116Z,4.58
2019-02-28T12:58:22.766Z,6.58
2019-02-28T13:00:51.296Z,9.68
2019-02-28T13:03:21.180Z,8.28
2019-02-28T13:05:49.496Z,6.67
2019-02-28T13:08:17.511Z,7.95
2019-02-28T13:10:46.331Z,10.58
2019-02-28T13:13:15.238Z,8.50
2019-02-28T13:15:45.583Z,5.60
2019-02-28T13:18:12.707Z,7.72
2019-02-28T13:20:41.191Z,4.87
2019-02-28T13:23:10.627Z,8.05
2019-02-28T13:25:39.542Z,9.58
2019-02-28T13:28:08.184Z,7.50
2019-02-28T13:30:39.875Z,6.78
2019-02-28T13:33:05.489Z,6.25
2019-02-28T13:35:34.488Z,8.05
2019-02-28T13:38:03.090Z,10.00
2019-02-28T13:40:31.895Z,10.85
2019-02-28T13:43:01.826Z,14.23
2019-02-28T13:45:29.658Z,12.28
2019-02-28T13:47:58.206Z,10.15
2019-02-28T13:50:27.179Z,8.23
2019-02-28T13:52:55.733Z,8.03
2019-02-28T13:55:24.580Z,6.60
2019-02-28T13:57:53.107Z,7.65
2019-02-28T14:00:23.538Z,7.10
2019-02-28T14:02:54.206Z,4.62
2019-02-28T14:05:23.038Z,5.75
2019-02-28T14:07:51.546Z,6.83
2019-02-28T14:10:20.130Z,7.70
2019-02-28T14:12:48.703Z,5.95
2019-02-28T14:15:19.310Z,7.60
2019-02-28T14:17:48.049Z,10.45
2019-02-28T14:20:16.777Z,5.75
2019-02-28T14:22:45.818Z,6.85
2019-02-28T14:25:14.609Z,9.03
2019-02-28T14:27:43.229Z,9.33
2019-02-28T14:30:12.693Z,3.83
2019-02-28T14:32:42.197Z,4.62
2019-02-28T14:35:10.277Z,8.18
2019-02-28T14:37:38.785Z,4.35
2019-02-28T14:40:10.129Z,5.33
2019-02-28T14:42:40.750Z,9.08
2019-02-28T14:45:09.553Z,5.60
2019-02-28T14:47:38.349Z,7.92
2019-02-28T14:50:07.701Z,6.55
2019-02-28T14:52:39.424Z,3.83
2019-02-28T14:55:05.953Z,5.95
2019-02-28T14:57:36.230Z,6.10
2019-02-28T15:00:07.240Z,3.08
2019-02-28T15:02:35.241Z,7.37
2019-02-28T15:05:03.925Z,7.67
2019-02-28T15:07:35.339Z,5.80
2019-02-28T15:10:01.676Z,5.47
2019-02-28T15:12:29.965Z,3.63
2019-02-28T15:14:58.481Z,4.65
2019-02-28T15:17:27.673Z,6.70
2019-02-28T15:19:57.953Z,5.72
2019-02-28T15:22:25.372Z,7.42
2019-02-28T15:24:54.391Z,9.65
2019-02-28T15:27:23.164Z,7.53
2019-02-28T15:29:51.713Z,7.05
2019-02-28T15:32:20.326Z,6.75
2019-02-28T15:34:48.881Z,6.20
2019-02-28T15:37:17.717Z,7.05
2019-02-28T15:39:49.855Z,6.42
2019-02-28T15:42:15.386Z,6.42
2019-02-28T15:44:43.858Z,4.97
2019-02-28T15:47:12.485Z,8.13
2019-02-28T15:49:42.441Z,12.28
2019-02-28T15:52:10.333Z,8.35
2019-02-28T15:54:39.181Z,5.95
2019-02-28T15:57:07.807Z,6.83
2019-02-28T15:59:36.283Z,8.70
2019-02-28T16:02:06.375Z,7.80
2019-02-28T16:04:33.849Z,9.18
2019-02-28T16:07:02.325Z,9.05
2019-02-28T16:09:30.840Z,10.30
2019-02-28T16:11:59.777Z,7.72
2019-02-28T16:14:28.277Z,11.95
2019-02-28T16:17:00.284Z,10.13
2019-02-28T16:19:26.397Z,9.97
2019-02-28T16:21:54.869Z,13.05
2019-02-28T16:24:23.506Z,13.28
2019-02-28T16:26:53.462Z,9.75
2019-02-28T16:30:23.321Z,10.03
2019-02-28T16:32:52.065Z,13.80
2019-02-28T16:35:20.587Z,14.00
2019-02-28T16:37:49.118Z,20.20
2019-02-28T16:40:20.778Z,19.33
2019-02-28T16:42:47.264Z,16.47
2019-02-28T16:45:24.018Z,18.20
2019-02-28T16:47:55.668Z,18.23
2019-02-28T16:50:21.400Z,19.27
2019-02-28T16:52:50.168Z,16.77
2019-02-28T16:55:18.757Z,19.73
2019-02-28T16:57:48.029Z,22.60
2019-02-28T17:00:16.256Z,16.73
2019-02-28T17:02:44.797Z,25.37
2019-02-28T17:05:13.414Z,24.37
2019-02-28T17:07:43.700Z,20.05
2019-02-28T17:10:13.304Z,25.40
2019-02-28T17:12:47.034Z,23.43
2019-02-28T17:15:23.203Z,27.80
2019-02-28T17:17:53.959Z,33.97
2019-02-28T17:20:22.447Z,32.25
2019-02-28T17:22:50.974Z,34.30
2019-02-28T17:25:21.629Z,26.00
2019-02-28T17:27:57.750Z,40.98
2019-02-28T17:30:32.869Z,30.43
2019-02-28T17:32:59.754Z,27.70
2019-02-28T17:35:30.672Z,22.97
2019-02-28T17:37:59.893Z,19.02
2019-02-28T17:40:26.216Z,18.05
2019-02-28T17:42:54.038Z,14.73
2019-02-28T17:45:25.766Z,18.57
2019-02-28T17:48:09.614Z,21.03
2019-02-28T17:51:44.197Z,18.60
2019-02-28T17:54:58.678Z,13.83
2019-02-28T17:59:45.351Z,19.73
2019-02-28T18:02:43.820Z,17.90
2019-02-28T18:05:45.131Z,17.03
2019-02-28T18:08:24.040Z,16.87
2019-02-28T18:12:11.282Z,16.23
2019-02-28T18:14:51.195Z,21.07
2019-02-28T18:17:33.409Z,22.83
2019-02-28T18:20:21.708Z,25.33
2019-02-28T18:23:06.698Z,29.27
2019-02-28T18:25:48.744Z,29.93
2019-02-28T18:28:26.010Z,24.83
2019-02-28T18:31:06.031Z,21.03
2019-02-28T18:33:34.840Z,28.60
2019-02-28T18:36:05.132Z,28.80
2019-02-28T18:38:35.749Z,31.17
2019-02-28T18:41:05.634Z,33.00
2019-02-28T18:43:30.480Z,37.70
2019-02-28T18:45:58.980Z,35.87
2019-02-28T18:48:27.466Z,37.27
2019-02-28T18:50:56.228Z,32.40
2019-02-28T18:53:25.400Z,31.87
2019-02-28T18:55:54.190Z,34.70
2019-02-28T18:58:22.864Z,29.23
2019-02-28T19:00:51.680Z,34.73
2019-02-28T19:03:20.261Z,32.93
2019-02-28T19:05:48.732Z,26.10
2019-02-28T19:08:17.472Z,24.83
2019-02-28T19:10:46.294Z,28.27
2019-02-28T19:13:14.751Z,25.77
2019-02-28T19:15:45.134Z,25.95
2019-02-28T19:18:12.132Z,34.83
2019-02-28T19:20:40.758Z,26.83
2019-02-28T19:23:09.632Z,21.90
2019-02-28T19:25:38.158Z,26.73
2019-02-28T19:28:06.741Z,31.80
2019-02-28T19:30:35.231Z,29.60
2019-02-28T19:33:04.501Z,30.50
2019-02-28T19:35:33.505Z,23.35
2019-02-28T19:38:02.256Z,27.97
2019-02-28T19:40:30.775Z,26.87
2019-02-28T19:42:59.228Z,31.00
2019-02-28T19:45:28.232Z,27.90
2019-02-28T19:47:56.753Z,30.90
2019-02-28T19:50:26.003Z,30.53
2019-02-28T19:52:54.517Z,31.67
2019-02-28T19:55:23.117Z,26.77
2019-02-28T19:57:51.878Z,31.27
2019-02-28T20:00:20.500Z,38.93
2019-02-28T20:02:49.284Z,38.63
2019-02-28T20:05:17.844Z,37.70
2019-02-28T20:07:46.335Z,45.00
2019-02-28T20:10:15.206Z,39.13
2019-02-28T20:12:44.231Z,39.53
2019-02-28T20:15:13.711Z,35.88
2019-02-28T20:17:42.539Z,31.87
2019-02-28T20:20:13.355Z,29.07
2019-02-28T20:22:41.867Z,34.53
2019-02-28T20:25:11.363Z,35.83
2019-02-28T20:27:39.919Z,37.77
2019-02-28T20:30:10.675Z,33.90
2019-02-28T20:32:39.587Z,38.38
2019-02-28T20:35:08.304Z,35.03
2019-02-28T20:37:36.819Z,42.87
2019-02-28T20:40:07.689Z,42.50
2019-02-28T20:42:36.208Z,37.57
2019-02-28T20:45:05.652Z,38.67
2019-02-28T20:47:34.381Z,36.77
2019-02-28T20:50:03.012Z,31.13
2019-02-28T20:52:31.502Z,33.20
2019-02-28T20:55:00.367Z,39.07
2019-02-28T20:57:28.740Z,36.83
2019-02-28T20:59:57.428Z,35.10
2019-02-28T21:02:26.560Z,34.73
2019-02-28T21:04:55.104Z,33.60
2019-02-28T21:07:23.576Z,29.53
2019-02-28T21:09:52.280Z,35.23
2019-02-28T21:12:20.884Z,34.50
2019-02-28T21:14:49.423Z,31.87
2019-02-28T21:17:18.007Z,35.60
2019-02-28T21:19:46.517Z,38.67
2019-02-28T21:22:15.114Z,39.13
2019-02-28T21:24:43.833Z,35.87
2019-02-28T21:28:15.166Z,34.43
2019-02-28T21:30:43.721Z,31.53
2019-02-28T21:33:15.745Z,34.13
2019-02-28T21:35:45.527Z,37.40
2019-02-28T21:38:16.959Z,38.30
2019-02-28T21:40:45.768Z,32.27
2019-02-28T21:43:14.224Z,37.70
2019-02-28T21:45:42.761Z,32.30
2019-02-28T21:48:11.828Z,38.20
2019-02-28T21:50:40.600Z,36.80
2019-02-28T21:53:10.582Z,31.50
2019-02-28T21:55:40.800Z,36.83
2019-02-28T21:58:09.319Z,39.63
2019-02-28T22:00:38.322Z,37.97
2019-02-28T22:03:07.822Z,32.90
2019-02-28T22:05:36.726Z,36.43
2019-02-28T22:08:05.420Z,33.40
2019-02-28T22:10:33.907Z,34.00
2019-02-28T22:13:02.389Z,36.77
2019-02-28T22:15:30.887Z,33.90
2019-02-28T22:17:59.689Z,34.63
2019-02-28T22:20:28.604Z,38.90
2019-02-28T22:22:57.144Z,31.90
2019-02-28T22:25:25.950Z,31.73
2019-02-28T22:27:54.408Z,30.50
2019-02-28T22:30:36.066Z,31.23
2019-02-28T22:33:06.546Z,39.77
2019-02-28T22:35:40.071Z,34.17
2019-02-28T22:38:08.530Z,31.00
2019-02-28T22:40:37.280Z,34.90
2019-02-28T22:43:05.939Z,33.13
2019-02-28T22:45:36.086Z,27.70
2019-02-28T22:48:04.670Z,36.13
2019-02-28T22:50:33.238Z,28.93
2019-02-28T22:53:01.702Z,27.37
2019-02-28T22:55:30.215Z,25.20
2019-02-28T22:57:58.663Z,24.73
2019-02-28T23:00:36.674Z,21.37
2019-02-28T23:03:05.259Z,25.33
2019-02-28T23:05:33.847Z,25.00
2019-02-28T23:08:02.709Z,34.07
2019-02-28T23:10:31.901Z,29.53
2019-02-28T23:13:00.399Z,35.43
2019-02-28T23:15:28.877Z,26.43
2019-02-28T23:17:57.371Z,29.33
2019-02-28T23:20:25.820Z,29.07
2019-02-28T23:22:54.336Z,32.60
2019-02-28T23:25:22.784Z,32.73
2019-02-28T23:27:51.544Z,23.98
2019-02-28T23:30:40.108Z,21.53
2019-02-28T23:33:12.944Z,27.30
2019-02-28T23:35:43.643Z,21.10
2019-02-28T23:38:12.499Z,21.80
2019-02-28T23:40:40.965Z,23.90
2019-02-28T23:43:10.478Z,23.83
2019-02-28T23:45:39.544Z,22.60
2019-02-28T23:48:08.287Z,22.33
2019-02-28T23:50:36.960Z,26.33
2019-02-28T23:53:05.908Z,24.00
2019-02-28T23:55:34.360Z,26.03
2019-02-28T23:58:03.128Z,21.67
